Create Custom Reports and Graphics: Custom Report

Lindcove R.E.C.

Current Conditions

1/20/21 7:30 AM (-08:00)
Updated Every 15 Minutes
Temp 33.2 °F   7.8
Upper Temp 40.2 °F   7.4
Temp Inversion 7.1 °F   0.4
RH 83 %   10
Dew Pt 28.6 °F   4.5
Wind Dir SSW | 195 °
Wind Spd 0.7 mph   1.1
Wind Gust 2.0 mph   2.0
BatVolt 12.4 V   0.0

Today & Yesterday

Lindcove R.E.C.

1/20/21 7:30 AM (-08:00)
Updated Every 15 Minutes
Daily Max Temp 37.2 °F   21.0
Time of Max Temp 0348
Daily Min Temp 32.4 °F   8.1
Time of Min Temp 0537
Upper Max Temp 48.1 °F   12.1
Upper Min Temp 36.9 °F   8.7
Daily Max Wind 9.9 mph   4.4
Time of Max Wind 0343
Max Wind Dir SW | 230 °
Daily Rain 0.00 In
Yesterday's Max Temp 69.9 °F
Yesterday’s Min Temp 36.0 °F
Yesterday's Max Wind 14.2 mph
Yesterday's Rainfall 0.00 In
Monthly Rain 0.02 In
Seasonal Rainfall 1.03 In

Daily Meteorological Summary

Last 30 Days

Daily Data | America/Los_Angeles
as of 1/20/21 7:32 AM PST
Date Daily Max Temp (°F) Time of Max Temp Daily Min Temp (°F) Time of Min Temp Daily Rain (In) Seasonal Rainfall (In) Wind Spd (mph) Daily Max Wind (mph) Time of Max Wind Max Wind Dir (°) Dew Pt (°F) Max RH (%) Min RH (%) Upper Max Temp (°F) Max Upper Temp Time Upper Min Temp (°F) Min Upper Temp Time Max Temp Inversion (°F) Time of Max Temp Inversion Min Temp Inversion (°F) Time of Min Temp Inversion Max 1 Min Rain (In) Max 1 Min Rain Time Max 15 Min Rain (In) Max 15 Min Precip Time Max 60 Min Rain (In) Max 60 Min Rain Time Storm Total (In) Bat Volt Min Day (V)
1/19/21 69.9 1336 36.0 2354 0.00 1.03 2.2 14.2 0217 S | 191 32.4 94 20 66.8 1522 42.8 2352 13.7 1838 -5.1 1325 - - - - - - - 12.4
1/18/21 73.5 1543 37.4 0654 0.00 1.03 1.3 9.4 1359 NW | 306 42.4 95 37 69.4 1543 42.2 0637 10.7 0702 -5.4 1332 - - - - - - - 12.3
1/17/21 76.4 1501 36.8 0706 0.00 1.03 0.9 5.9 1340 W | 280 41.0 96 29 72.5 1521 41.1 0712 9.6 2341 -5.6 1400 - - - - - - - 12.4
1/16/21 70.9 1346 37.6 0704 0.00 1.03 1.4 8.6 1513 SW | 223 42.5 95 40 66.9 1401 41.2 0631 10.4 0722 -5.3 1336 - - - - - - - 12.3
1/15/21 73.7 1407 33.8 0647 0.00 1.03 1.3 7.9 1406 W | 281 39.7 96 29 70.6 1456 38.2 0631 10.4 2150 -5.4 1408 - - - - - - - 12.3
1/14/21 71.2 1515 33.5 0641 0.00 1.03 1.0 7.0 1418 WNW | 294 36.8 95 27 68.9 1514 37.6 0707 12.3 1821 -5.3 1346 - - - - - - - 12.3
1/13/21 68.5 1504 33.7 0507 0.00 1.03 1.3 7.7 0543 SE | 136 36.9 95 30 65.5 1511 36.3 0437 10.4 1858 -4.9 1038 - - - - - - - 12.3
1/12/21 60.2 1537 33.9 0652 0.00 1.03 1.0 5.5 2107 SSE | 155 37.6 95 48 59.1 1524 36.1 0709 10.6 1920 -2.2 1318 - - - - - - - 12.3
1/11/21 64.4 1446 32.3 0657 0.00 1.03 1.4 9.4 1035 SSW | 206 37.2 96 39 62.1 1453 36.5 0557 9.8 0700 -5.6 1055 - - - - - - - 12.3
1/10/21 63.4 1348 33.5 0701 0.00 1.03 1.2 8.6 1419 SW | 235 38.8 96 43 59.3 1439 37.5 0712 8.9 2316 -5.7 1349 - - - - - - - 12.3
1/9/21 59.3 1420 31.8 0629 0.00 1.03 1.1 8.6 1424 WSW | 258 38.4 96 55 54.7 1415 33.9 0249 7.5 0141 -5.3 1420 - - - - - - - 12.3
1/8/21 60.7 1529 34.3 2358 0.00 1.03 1.1 18.2 0749 SE | 142 38.2 96 52 58.1 1524 36.9 0625 7.7 2020 -4.5 1411 - - - - - - - 12.3
1/7/21 62.9 1448 36.5 2345 0.00 1.03 1.2 8.6 1310 SW | 236 40.6 96 49 59.0 1226 39.4 2343 7.2 1847 -5.0 1453 - - - - - - - 12.3
1/6/21 61.7 1322 35.1 0654 0.00 1.03 1.3 9.0 1911 ESE | 116 41.0 96 54 59.8 1322 38.2 0714 7.6 0551 -3.8 1224 - - - - - - 0.01 12.3
1/5/21 65.1 1433 36.3 0640 0.01 1.03 1.5 12.7 1117 SSW | 212 41.8 95 49 61.4 1431 41.1 0516 8.8 0246 -5.5 1336 0.01 0825 0.01 0839 0.01 0924 0.01 12.3
1/4/21 66.2 1512 42.0 0739 0.00 1.02 1.2 8.1 1020 WSW | 251 43.0 94 39 65.0 1507 45.5 0705 8.4 2053 -4.6 1021 - - - - - - 0.01 12.4
1/3/21 64.4 1350 37.9 0716 0.01 1.02 1.2 10.1 1219 SW | 234 39.6 93 35 61.4 1333 40.4 0741 9.8 0716 -4.1 1352 0.01 2238 0.01 2252 0.01 2337 0.01 12.3
1/2/21 64.1 1323 34.3 0737 0.00 1.01 1.1 7.9 1107 SW | 231 36.7 94 34 61.6 1523 38.1 0655 10.3 0048 -4.5 1319 - - - - - - - 12.3
1/1/21 65.2 1507 32.4 0710 0.00 1.01 1.2 7.7 1556 SW | 222 36.8 95 27 61.3 1507 37.5 0645 9.8 2215 -5.5 1049 - - - - - - - 12.3
12/31/20 51.8 1445 35.1 0218 0.00 1.01 1.6 11.0 1444 SSW | 210 40.1 95 66 50.9 1438 38.8 0128 8.2 0153 -1.9 1445 - - - - - - - 12.4
12/30/20 62.3 1527 33.5 0658 0.00 1.01 1.2 8.8 0832 NE | 55 38.6 96 42 58.7 1555 37.2 0642 8.4 0405 -5.1 1443 - - - - - - - 12.3
12/29/20 60.2 1409 37.7 0008 0.00 1.01 1.3 12.5 1203 WSW | 254 40.5 94 50 57.1 1408 41.0 0717 8.4 2115 -6.0 1336 - - - - - - 0.26 12.4
12/28/20 64.5 1406 37.9 2357 0.21 1.01 2.7 21.9 0030 W | 266 40.2 92 35 61.8 1405 42.0 2328 7.4 2346 -4.9 1459 0.01 0309 0.06 0108 0.12 0246 0.26 12.4
12/27/20 61.5 1529 39.6 0001 0.05 0.80 1.3 8.6 1158 NNW | 340 43.4 94 52 61.0 1522 41.8 0334 5.6 0208 -1.1 1434 0.01 1039 0.01 1053 0.03 1039 0.05 12.4
12/26/20 67.1 1329 39.6 2354 0.00 0.75 1.9 16.4 1436 WNW | 297 39.6 90 39 63.7 1241 42.1 2356 10.2 0001 -4.2 1326 - - - - - - - 12.4
12/25/20 67.1 1236 29.3 0632 0.00 0.75 1.3 8.6 1249 W | 262 30.4 91 18 65.6 1233 33.3 0635 12.3 2135 -3.0 1245 - - - - - - - 12.3
12/24/20 62.3 1505 32.5 0727 0.00 0.75 1.2 6.4 1517 NNW | 344 33.7 94 28 59.4 1459 35.7 0723 12.1 2151 -4.6 1333 - - - - - - - 12.3
12/23/20 58.3 1428 35.5 2358 0.00 0.75 1.6 9.0 0606 NNE | 31 37.7 94 48 55.8 1457 38.7 2302 7.3 2214 -4.9 1429 - - - - - - - 12.3
12/22/20 51.7 1434 32.9 0319 0.00 0.75 1.5 6.8 0459 SE | 141 37.7 96 64 48.3 1436 34.0 0329 4.9 0208 -5.0 1431 - - - - - - - 12.3
12/21/20 64.5 1509 28.5 0708 0.00 0.75 0.8 6.6 1345 NNW | 345 35.4 95 43 63.3 1505 31.9 0624 8.2 0314 -5.3 1335 - - - - - - - 12.3
Max 76.4 - 42.0 - 0.21 - 2.7 21.9 - - 43.4 96 66 72.5 - 45.5 - 13.7 - -1.1 - 0.01 - 0.06 - 0.12 - 0.26 12.4
Avg - - - - - - 1.4 - - - 38.6 - - - - - - - - - - - - - - - - 0.09 -
Min 51.7 - 28.5 - 0.00 - 0.8 5.5 - - 30.4 90 18 48.3 - 31.9 - 4.9 - -6.0 - 0.01 - 0.01 - 0.01 - 0.01 12.3

Daily Bio-Meteorological Summary

Last 30 Days

Daily Data | America/Los_Angeles
as of 1/20/21 7:32 AM PST
Date Daily Max Temp (°F) Daily Min Temp (°F) Daily Rain (In) GDDs (DL) GDDs (Mx/Mn) Chilling <=45F (hrs) Chill Hrs 32-45F (hrs) Utah Chilling (Units) Chilling <=45F Seas (hrs) Chill Hrs 32-45 Seas (hrs) Utah Chilling Seas (Units) Chill Portions Hrs 70-85F (hrs) Hrs > 95F (hrs) Bee Hrs Today (Hrs) Hrs <= 32F (hrs) Hrs <= 28F (hrs)
1/19/21 69.9 36.0 0.00 5.7 2.9 7.6 7.6 5.5 885 817 458 41 0.00 0.00 7.1 0.0 0.0
1/18/21 73.5 37.4 0.00 6.1 5.5 9.2 9.2 3.0 877 810 453 41 2.68 0.00 7.4 0.0 0.0
1/17/21 76.4 36.8 0.00 6.4 6.6 11.4 11.4 5.0 868 800 451 41 3.15 0.00 7.1 0.0 0.0
1/16/21 70.9 37.6 0.00 5.3 4.3 10.2 10.2 4.5 857 789 447 41 0.50 0.00 7.0 0.0 0.0
1/15/21 73.7 33.8 0.00 5.8 3.7 9.2 9.2 4.5 847 779 444 41 2.68 0.00 6.9 0.0 0.0
1/14/21 71.2 33.5 0.00 4.8 2.4 13.3 13.3 5.5 838 770 440 41 0.50 0.00 6.9 0.0 0.0
1/13/21 68.5 33.7 0.00 3.9 1.1 13.6 13.6 2.5 824 756 436 40 0.00 0.00 6.8 0.0 0.0
1/12/21 60.2 33.9 0.00 1.7 0.0 15.2 15.2 6.5 811 743 434 40 0.00 0.00 3.9 0.0 0.0
1/11/21 64.4 32.3 0.00 2.8 0.0 14.9 14.9 6.5 796 728 428 39 0.00 0.00 6.5 0.0 0.0
1/10/21 63.4 33.5 0.00 2.4 0.0 13.9 13.9 6.5 781 713 423 39 0.00 0.00 6.1 0.0 0.0
1/9/21 59.3 31.8 0.00 0.8 0.0 16.1 15.9 7.5 767 699 418 38 0.00 0.00 2.0 0.1 0.0
1/8/21 60.7 34.3 0.00 1.2 0.0 17.8 17.8 7.0 751 683 411 37 0.00 0.00 3.0 0.0 0.0
1/7/21 62.9 36.5 0.00 2.0 0.0 14.8 14.8 7.0 733 665 404 36 0.00 0.00 4.8 0.0 0.0
1/6/21 61.7 35.1 0.00 2.0 0.0 13.9 13.9 6.5 718 650 398 36 0.00 0.00 4.6 0.0 0.0
1/5/21 65.1 36.3 0.01 2.8 0.7 11.4 11.4 5.5 704 636 393 35 0.00 0.00 5.9 0.0 0.0
1/4/21 66.2 42.0 0.00 4.4 4.1 3.8 3.8 4.0 693 625 388 34 0.00 0.00 7.0 0.0 0.0
1/3/21 64.4 37.9 0.01 3.2 1.2 8.9 8.9 5.0 689 621 386 33 0.00 0.00 6.7 0.0 0.0
1/2/21 64.1 34.3 0.00 3.0 0.0 14.0 14.0 6.5 680 612 381 33 0.00 0.00 6.7 0.0 0.0
1/1/21 65.2 32.4 0.00 2.5 0.0 13.0 13.0 7.0 666 598 376 32 0.00 0.00 5.4 0.0 0.0
12/31/20 51.8 35.1 0.00 0.0 0.0 10.6 10.6 22.0 653 585 370 31 0.00 0.00 0.0 0.0 0.0
12/30/20 62.3 33.5 0.00 1.8 0.0 15.1 15.1 7.0 642 575 348 30 0.00 0.00 4.1 0.0 0.0
12/29/20 60.2 37.7 0.00 1.6 0.0 14.6 14.6 7.0 627 560 342 29 0.00 0.00 4.1 0.0 0.0
12/28/20 64.5 37.9 0.21 2.8 1.2 6.5 6.5 6.0 613 545 336 29 0.00 0.00 6.3 0.0 0.0
12/27/20 61.5 39.6 0.05 1.3 0.6 8.9 8.9 6.0 606 538 332 28 0.00 0.00 2.6 0.0 0.0
12/26/20 67.1 39.6 0.00 3.8 3.4 3.6 3.6 6.5 597 530 326 27 0.00 0.00 7.5 0.0 0.0
12/25/20 67.1 29.3 0.00 3.2 0.0 12.0 7.6 6.5 594 526 321 26 0.00 0.00 5.6 4.4 0.0
12/24/20 62.3 32.5 0.00 1.3 0.0 17.1 17.1 0.0 582 518 316 26 0.00 0.00 3.0 0.0 0.0
12/23/20 58.3 35.5 0.00 0.8 0.0 16.6 16.6 7.5 565 501 310 25 0.00 0.00 2.0 0.0 0.0
12/22/20 51.7 32.9 0.00 0.0 0.0 20.9 20.9 16.5 548 485 304 25 0.00 0.00 0.0 0.0 0.0
12/21/20 64.5 28.5 0.00 2.1 0.0 15.8 8.6 5.0 527 464 288 24 0.00 0.00 4.5 7.2 0.0
Max 76.4 42.0 0.21 6.4 6.6 20.9 20.9 22.0 - - - 41 3.15 0.00 7.5 7.2 0.0
Avg - - - 2.9 1.3 12.5 12.1 6.5 - - - 34 0.32 0.00 5.0 0.4 0.0
Min 51.7 28.5 0.00 0.0 0.0 3.6 3.6 0.0 - - - 24 0.00 0.00 0.0 0.0 0.0
Total - - - 85.6 37.7 373.6 361.9 196.0 - - - - 9.51 0.00 151.4 11.6 0.0

Climate Summary

Lindcove R.E.C.

Current Year | Showing 1/1/21 - 1/19/21
as of 1/20/21 7:32 AM PST
Temperature (°F) Precip (in) Days
Month Days Avg Max Avg Min Max Max Min Min Total Daily Min Temp < 28 Daily Min Temp < 32 Daily Max Temp > 90 Daily Max Temp > 100 Daily Rain > 0.01 Daily Rain > 0.1
Jan 2021 19 66.4 35.2 76.4 31.8 0.02 0 1 0 0 0 0

Climate Summary

Lindcove R.E.C.

Last Year | Showing 1/1/20 - 12/31/20
as of 1/20/21 7:32 AM PST
Temperature (°F) Precip (in) Days
Month Days Avg Max Avg Min Max Max Min Min Total Daily Min Temp < 28 Daily Min Temp < 32 Daily Max Temp > 90 Daily Max Temp > 100 Daily Rain > 0.01 Daily Rain > 0.1
Jan 2020 31 60.7 37.8 69.2 31.5 0.56 0 2 0 0 1 1
Feb 2020 29 72.1 36.3 86.4 26.9 0.34 2 7 0 0 1 1
Mar 2020 31 69.6 42.1 87.1 33.2 2.19 0 0 0 0 9 6
Apr 2020 30 77.4 49.8 95.7 37.2 2.4 0 0 4 0 7 6
May 2020 31 89.7 53.9 108.2 45.3 0.38 0 0 12 6 1 1
Jun 2020 30 95.8 59.8 107.5 47.1 0 0 0 20 13 0 0
Jul 2020 31 101.3 62.7 108.7 55.4 0.1 0 0 31 19 2 0
Aug 2020 31 101.6 65.7 111 58.9 0 0 0 31 22 0 0
Sep 2020 30 93.3 59.5 107.3 53.3 0 0 0 20 4 0 0
Oct 2020 31 87.9 50.4 98.4 37.1 0 0 0 12 0 0 0
Nov 2020 30 69.7 37.9 86.3 29 0.44 0 6 0 0 2 2
Dec 2020 31 63.6 33.5 77.9 28.5 0.57 0 15 0 0 6 2
Total 366 - - - - 6.98 2 30 130 64 29 19
Average 30.5 81.9 49.1 - - 0.58 0.2 2.5 10.8 5.3 2.4 1.6
Maximum 31 101.6 65.7 111 - 2.4 2 15 31 22 9 6
Minimum 29 60.7 33.5 - 26.9 0 0 0 0 0 0 0
Calm: 0.0%
Calm: 0.0%